createdAt,value
2023-05-05T00:00:57.000Z,0
2023-05-05T00:03:30.000Z,0
2023-05-05T00:04:46.000Z,0
2023-05-05T00:06:02.000Z,0
2023-05-05T00:07:19.000Z,0
2023-05-05T00:08:36.000Z,0
2023-05-05T00:09:52.000Z,0
2023-05-05T00:11:09.000Z,0
2023-05-05T00:12:25.000Z,0
2023-05-05T00:13:42.000Z,0
2023-05-05T00:14:58.000Z,0
2023-05-05T00:16:15.000Z,0
2023-05-05T00:17:31.000Z,0
2023-05-05T00:18:48.000Z,0
2023-05-05T00:20:04.000Z,0
2023-05-05T00:21:20.000Z,0
2023-05-05T00:22:37.000Z,0
2023-05-05T00:23:53.000Z,0
2023-05-05T00:25:10.000Z,0
2023-05-05T00:26:26.000Z,0
2023-05-05T00:27:43.000Z,0
2023-05-05T00:28:59.000Z,0
2023-05-05T00:30:16.000Z,0
2023-05-05T00:31:32.000Z,0
2023-05-05T00:32:49.000Z,0
2023-05-05T00:34:06.000Z,0
2023-05-05T00:35:22.000Z,0
2023-05-05T00:36:39.000Z,0
2023-05-05T00:37:54.000Z,0
2023-05-05T00:39:11.000Z,0
2023-05-05T00:40:28.000Z,0
2023-05-05T00:41:44.000Z,0
2023-05-05T00:43:01.000Z,0
2023-05-05T00:44:17.000Z,0
2023-05-05T00:45:34.000Z,0
2023-05-05T00:46:50.000Z,0
2023-05-05T00:48:07.000Z,0
2023-05-05T00:49:23.000Z,0
2023-05-05T00:50:40.000Z,0
2023-05-05T00:51:56.000Z,0
2023-05-05T00:53:13.000Z,0
2023-05-05T00:54:29.000Z,0
2023-05-05T00:55:45.000Z,0
2023-05-05T00:57:02.000Z,0
2023-05-05T00:58:18.000Z,0
2023-05-05T00:59:35.000Z,0
2023-05-05T01:00:51.000Z,0
2023-05-05T01:02:08.000Z,0
2023-05-05T01:03:24.000Z,0
2023-05-05T01:04:41.000Z,0
2023-05-05T01:05:58.000Z,0
2023-05-05T01:08:31.000Z,0
2023-05-05T01:09:47.000Z,0
2023-05-05T01:11:03.000Z,0
2023-05-05T01:12:19.000Z,0
2023-05-05T01:13:36.000Z,0
2023-05-05T01:14:53.000Z,0
2023-05-05T01:16:09.000Z,0
2023-05-05T01:17:26.000Z,0
2023-05-05T01:18:42.000Z,0
2023-05-05T01:19:59.000Z,0
2023-05-05T01:21:15.000Z,0
2023-05-05T01:22:32.000Z,0
2023-05-05T01:23:48.000Z,0
2023-05-05T01:25:05.000Z,0
2023-05-05T01:26:21.000Z,0
2023-05-05T01:27:37.000Z,0
2023-05-05T01:28:54.000Z,0
2023-05-05T01:30:10.000Z,0
2023-05-05T01:31:27.000Z,0
2023-05-05T01:32:43.000Z,0
2023-05-05T01:34:00.000Z,0
2023-05-05T01:35:16.000Z,0
2023-05-05T01:36:33.000Z,0
2023-05-05T01:37:49.000Z,0
2023-05-05T01:39:06.000Z,0
2023-05-05T01:40:23.000Z,0
2023-05-05T01:41:39.000Z,0
2023-05-05T01:42:56.000Z,0
2023-05-05T01:44:11.000Z,0
2023-05-05T01:45:28.000Z,0
2023-05-05T01:46:44.000Z,0
2023-05-05T01:48:01.000Z,0
2023-05-05T01:49:18.000Z,0
2023-05-05T01:50:34.000Z,0
2023-05-05T01:51:51.000Z,0
2023-05-05T01:53:07.000Z,0
2023-05-05T01:54:24.000Z,0
2023-05-05T01:55:40.000Z,0
2023-05-05T01:56:57.000Z,0
2023-05-05T01:58:13.000Z,0
2023-05-05T01:59:30.000Z,0
2023-05-05T02:00:46.000Z,0
2023-05-05T02:02:02.000Z,0
2023-05-05T02:03:19.000Z,0
2023-05-05T02:04:35.000Z,0
2023-05-05T02:05:52.000Z,0
2023-05-05T02:07:08.000Z,0
2023-05-05T02:08:25.000Z,0
2023-05-05T02:09:41.000Z,0
2023-05-05T02:10:58.000Z,0
2023-05-05T02:12:15.000Z,0
2023-05-05T02:13:31.000Z,0
2023-05-05T02:14:48.000Z,0
2023-05-05T02:16:04.000Z,0
2023-05-05T02:17:20.000Z,0
2023-05-05T02:18:36.000Z,0
2023-05-05T02:19:53.000Z,0
2023-05-05T02:21:10.000Z,0
2023-05-05T02:22:26.000Z,0
2023-05-05T02:23:43.000Z,0
2023-05-05T02:24:59.000Z,0
2023-05-05T02:26:16.000Z,0
2023-05-05T02:27:32.000Z,0
2023-05-05T02:28:49.000Z,0
2023-05-05T02:30:05.000Z,0
2023-05-05T02:31:22.000Z,0
2023-05-05T02:32:38.000Z,0
2023-05-05T02:33:55.000Z,0
2023-05-05T02:35:11.000Z,0
2023-05-05T02:36:27.000Z,0
2023-05-05T02:37:44.000Z,0
2023-05-05T02:39:00.000Z,0
2023-05-05T02:40:17.000Z,0
2023-05-05T02:41:33.000Z,0
2023-05-05T02:42:50.000Z,0
2023-05-05T02:44:06.000Z,0
2023-05-05T02:45:23.000Z,0
2023-05-05T02:46:40.000Z,0
2023-05-05T02:47:56.000Z,0
2023-05-05T02:49:13.000Z,0
2023-05-05T02:50:29.000Z,0
2023-05-05T02:51:45.000Z,0
2023-05-05T02:53:01.000Z,0
2023-05-05T02:54:18.000Z,0
2023-05-05T02:55:35.000Z,0
2023-05-05T02:56:51.000Z,0
2023-05-05T02:58:08.000Z,0
2023-05-05T03:00:41.000Z,0
2023-05-05T03:01:57.000Z,0
2023-05-05T03:03:14.000Z,0
2023-05-05T03:04:30.000Z,0
2023-05-05T03:05:47.000Z,0
2023-05-05T03:07:03.000Z,0
2023-05-05T03:08:19.000Z,0
2023-05-05T03:09:36.000Z,0
2023-05-05T03:10:52.000Z,0
2023-05-05T03:12:09.000Z,0
2023-05-05T03:13:25.000Z,0
2023-05-05T03:14:41.000Z,0
2023-05-05T03:15:58.000Z,0
2023-05-05T03:17:14.000Z,0
2023-05-05T03:18:31.000Z,0
2023-05-05T03:21:04.000Z,0
2023-05-05T03:22:20.000Z,0
2023-05-05T03:23:37.000Z,0
2023-05-05T03:24:54.000Z,0
2023-05-05T03:26:10.000Z,0
2023-05-05T03:27:27.000Z,0
2023-05-05T03:28:43.000Z,0
2023-05-05T03:30:00.000Z,0
2023-05-05T03:31:15.000Z,0
2023-05-05T03:32:32.000Z,0
2023-05-05T03:33:49.000Z,0
2023-05-05T03:35:05.000Z,0
2023-05-05T03:36:22.000Z,0
2023-05-05T03:37:38.000Z,0
2023-05-05T03:38:55.000Z,0
2023-05-05T03:40:11.000Z,0
2023-05-05T03:41:28.000Z,0
2023-05-05T03:42:44.000Z,0
2023-05-05T03:44:01.000Z,5
2023-05-05T03:45:17.000Z,5
2023-05-05T03:46:34.000Z,5
2023-05-05T03:47:50.000Z,11
2023-05-05T03:49:06.000Z,11
2023-05-05T03:51:39.000Z,16
2023-05-05T03:52:56.000Z,22
2023-05-05T03:54:12.000Z,28
2023-05-05T03:55:29.000Z,28
2023-05-05T03:56:45.000Z,33
2023-05-05T03:58:02.000Z,33
2023-05-05T04:00:35.000Z,39
2023-05-05T04:01:52.000Z,45
2023-05-05T04:03:08.000Z,50
2023-05-05T04:04:24.000Z,50
2023-05-05T04:05:40.000Z,61
2023-05-05T04:06:57.000Z,67
2023-05-05T04:08:14.000Z,73
2023-05-05T04:09:30.000Z,84
2023-05-05T04:10:47.000Z,84
2023-05-05T04:12:03.000Z,95
2023-05-05T04:13:20.000Z,106
2023-05-05T04:14:36.000Z,118
2023-05-05T04:15:53.000Z,123
2023-05-05T04:17:09.000Z,135
2023-05-05T04:18:26.000Z,146
2023-05-05T04:19:42.000Z,146
2023-05-05T04:20:58.000Z,157
2023-05-05T04:22:15.000Z,174
2023-05-05T04:23:31.000Z,185
2023-05-05T04:24:48.000Z,191
2023-05-05T04:26:04.000Z,202
2023-05-05T04:27:21.000Z,230
2023-05-05T04:28:37.000Z,236
2023-05-05T04:29:54.000Z,225
2023-05-05T04:31:11.000Z,236
2023-05-05T04:32:27.000Z,247
2023-05-05T04:33:44.000Z,258
2023-05-05T04:35:00.000Z,286
2023-05-05T04:36:17.000Z,315
2023-05-05T04:37:32.000Z,343
2023-05-05T04:38:49.000Z,371
2023-05-05T04:40:06.000Z,393
2023-05-05T04:41:22.000Z,416
2023-05-05T04:42:39.000Z,466
2023-05-05T04:43:55.000Z,489
2023-05-05T04:45:12.000Z,506
2023-05-05T04:46:28.000Z,500
2023-05-05T04:47:45.000Z,511
2023-05-05T04:49:01.000Z,511
2023-05-05T04:50:18.000Z,478
2023-05-05T04:51:34.000Z,483
2023-05-05T04:52:51.000Z,450
2023-05-05T04:54:07.000Z,421
2023-05-05T04:55:23.000Z,444
2023-05-05T04:56:40.000Z,483
2023-05-05T04:57:56.000Z,528
2023-05-05T04:59:13.000Z,540
2023-05-05T05:00:29.000Z,506
2023-05-05T05:01:46.000Z,523
2023-05-05T05:03:02.000Z,540
2023-05-05T05:04:19.000Z,495
2023-05-05T05:05:36.000Z,495
2023-05-05T05:06:52.000Z,438
2023-05-05T05:08:09.000Z,444
2023-05-05T05:10:42.000Z,461
2023-05-05T05:11:58.000Z,472
2023-05-05T05:13:14.000Z,489
2023-05-05T05:14:31.000Z,517
2023-05-05T05:15:47.000Z,556
2023-05-05T05:19:37.000Z,596
2023-05-05T05:20:53.000Z,601
2023-05-05T05:22:09.000Z,613
2023-05-05T05:23:25.000Z,618
2023-05-05T05:24:42.000Z,765
2023-05-05T05:25:58.000Z,630
2023-05-05T05:27:15.000Z,703
2023-05-05T05:28:31.000Z,686
2023-05-05T05:29:48.000Z,652
2023-05-05T05:31:04.000Z,680
2023-05-05T05:32:21.000Z,720
2023-05-05T05:33:37.000Z,720
2023-05-05T05:34:54.000Z,731
2023-05-05T05:36:10.000Z,742
2023-05-05T05:37:26.000Z,753
2023-05-05T05:38:42.000Z,787
2023-05-05T05:39:59.000Z,922
2023-05-05T05:41:15.000Z,1282
2023-05-05T05:42:32.000Z,1231
2023-05-05T05:43:48.000Z,1085
2023-05-05T05:45:05.000Z,1141
2023-05-05T05:46:21.000Z,1243
2023-05-05T05:47:38.000Z,1366
2023-05-05T05:50:11.000Z,1333
2023-05-05T05:52:44.000Z,1372
2023-05-05T05:54:00.000Z,1254
2023-05-05T05:55:16.000Z,1288
2023-05-05T05:56:32.000Z,1282
2023-05-05T05:57:49.000Z,1366
2023-05-05T05:59:05.000Z,1248
2023-05-05T06:00:22.000Z,1186
2023-05-05T06:01:38.000Z,1170
2023-05-05T06:02:55.000Z,1254
2023-05-05T06:04:11.000Z,1254
2023-05-05T06:05:28.000Z,1299
2023-05-05T06:06:44.000Z,1282
2023-05-05T06:08:00.000Z,1260
2023-05-05T06:09:16.000Z,1181
2023-05-05T06:10:33.000Z,1181
2023-05-05T06:11:49.000Z,1130
2023-05-05T06:13:06.000Z,1080
2023-05-05T06:14:22.000Z,1012
2023-05-05T06:15:39.000Z,973
2023-05-05T06:16:55.000Z,978
2023-05-05T06:18:12.000Z,984
2023-05-05T06:19:28.000Z,1023
2023-05-05T06:20:45.000Z,1057
2023-05-05T06:22:02.000Z,1029
2023-05-05T06:23:18.000Z,995
2023-05-05T06:24:35.000Z,1006
2023-05-05T06:25:50.000Z,1023
2023-05-05T06:27:07.000Z,1023
2023-05-05T06:28:24.000Z,1063
2023-05-05T06:29:40.000Z,1130
2023-05-05T06:30:57.000Z,1209
2023-05-05T06:32:13.000Z,1350
2023-05-05T06:33:30.000Z,1423
2023-05-05T06:34:46.000Z,1726
2023-05-05T06:36:03.000Z,1873
2023-05-05T06:37:19.000Z,1631
2023-05-05T06:38:36.000Z,1350
2023-05-05T06:41:09.000Z,1468
2023-05-05T06:42:25.000Z,1535
2023-05-05T06:43:41.000Z,1552
2023-05-05T06:44:58.000Z,1822
2023-05-05T06:47:31.000Z,1530
2023-05-05T06:48:47.000Z,1935
2023-05-05T06:50:04.000Z,1957
2023-05-05T06:51:20.000Z,2070
2023-05-05T06:52:37.000Z,2008
2023-05-05T06:53:54.000Z,1614
2023-05-05T06:55:10.000Z,2036
2023-05-05T06:56:27.000Z,2480
2023-05-05T06:57:43.000Z,2424
2023-05-05T06:59:00.000Z,2300
2023-05-05T07:01:32.000Z,3015
2023-05-05T07:04:04.000Z,2542
2023-05-05T07:05:20.000Z,3161
2023-05-05T07:06:36.000Z,2981
2023-05-05T07:07:53.000Z,2750
2023-05-05T07:09:09.000Z,2621
2023-05-05T07:10:26.000Z,2930
2023-05-05T07:11:42.000Z,2773
2023-05-05T07:12:59.000Z,2176
2023-05-05T07:14:15.000Z,2570
2023-05-05T07:15:32.000Z,2947
2023-05-05T07:16:48.000Z,2638
2023-05-05T07:18:05.000Z,2632
2023-05-05T07:20:37.000Z,2430
2023-05-05T07:21:53.000Z,2255
2023-05-05T07:23:10.000Z,2081
2023-05-05T07:24:26.000Z,2311
2023-05-05T07:26:59.000Z,2154
2023-05-05T07:28:15.000Z,2210
2023-05-05T07:29:32.000Z,2064
2023-05-05T07:37:10.000Z,2221
2023-05-05T07:41:00.000Z,2334
2023-05-05T07:47:22.000Z,2773
2023-05-05T07:48:38.000Z,2829
2023-05-05T07:52:27.000Z,2418
2023-05-05T07:53:44.000Z,2424
2023-05-05T07:55:01.000Z,2362
2023-05-05T07:56:17.000Z,2396
2023-05-05T07:57:34.000Z,2581
2023-05-05T07:58:50.000Z,2435
2023-05-05T08:02:40.000Z,2233
2023-05-05T08:05:13.000Z,2385
2023-05-05T08:06:29.000Z,2542
2023-05-05T08:07:45.000Z,2581
2023-05-05T08:09:02.000Z,2452
2023-05-05T08:10:18.000Z,2739
2023-05-05T08:11:35.000Z,2700
2023-05-05T08:12:51.000Z,2733
2023-05-05T08:14:08.000Z,2913
2023-05-05T08:16:41.000Z,3009
2023-05-05T08:17:57.000Z,2964
2023-05-05T08:19:14.000Z,3031
2023-05-05T08:20:31.000Z,2958
2023-05-05T08:21:47.000Z,2975
2023-05-05T08:23:03.000Z,2711
2023-05-05T08:24:19.000Z,2525
2023-05-05T08:25:36.000Z,2632
2023-05-05T08:26:52.000Z,2700
2023-05-05T08:29:26.000Z,2913
2023-05-05T08:30:42.000Z,2761
2023-05-05T08:31:59.000Z,2891
2023-05-05T08:33:15.000Z,3121
2023-05-05T08:34:32.000Z,3346
2023-05-05T08:37:05.000Z,2925
2023-05-05T08:38:21.000Z,2745
2023-05-05T08:40:54.000Z,3240
2023-05-05T08:42:10.000Z,3256
2023-05-05T08:46:00.000Z,3363
2023-05-05T08:48:33.000Z,3285
2023-05-05T08:49:49.000Z,3273
2023-05-05T08:57:29.000Z,3324
2023-05-05T08:58:44.000Z,3285
2023-05-05T09:00:01.000Z,2756
2023-05-05T09:01:18.000Z,3009
2023-05-05T09:02:34.000Z,3256
2023-05-05T09:03:51.000Z,2700
2023-05-05T09:06:24.000Z,3414
2023-05-05T09:07:40.000Z,3549
2023-05-05T09:08:57.000Z,3780
2023-05-05T09:10:13.000Z,4314
2023-05-05T09:11:30.000Z,4775
2023-05-05T09:12:46.000Z,4618
2023-05-05T09:14:03.000Z,4595
2023-05-05T09:19:08.000Z,4235
2023-05-05T09:20:25.000Z,4376
2023-05-05T09:26:48.000Z,4145
2023-05-05T09:28:04.000Z,4792
2023-05-05T09:29:21.000Z,5146
2023-05-05T09:31:54.000Z,4567
2023-05-05T09:33:09.000Z,5596
2023-05-05T09:35:43.000Z,4938
2023-05-05T09:36:59.000Z,4893
2023-05-05T09:38:16.000Z,4910
2023-05-05T09:39:32.000Z,4719
2023-05-05T09:40:49.000Z,4736
2023-05-05T09:42:05.000Z,4325
2023-05-05T09:43:22.000Z,4522
2023-05-05T09:44:38.000Z,5045
2023-05-05T09:45:55.000Z,4899
2023-05-05T09:47:11.000Z,4207
2023-05-05T09:48:28.000Z,4280
2023-05-05T09:52:17.000Z,5495
2023-05-05T09:53:33.000Z,5349
2023-05-05T09:54:50.000Z,5028
2023-05-05T09:57:23.000Z,3774
2023-05-05T09:58:40.000Z,5242
2023-05-05T09:59:56.000Z,5011
2023-05-05T10:01:13.000Z,2143
2023-05-05T10:02:29.000Z,4005
2023-05-05T10:03:46.000Z,5630
2023-05-05T10:05:02.000Z,5332
2023-05-05T10:06:18.000Z,2176
2023-05-05T10:07:35.000Z,1485
2023-05-05T10:08:51.000Z,1490
2023-05-05T10:10:08.000Z,1316
2023-05-05T10:11:24.000Z,1243
2023-05-05T10:12:41.000Z,1209
2023-05-05T10:13:57.000Z,1192
2023-05-05T10:15:14.000Z,1203
2023-05-05T10:17:47.000Z,1350
2023-05-05T10:19:03.000Z,1755
2023-05-05T10:20:20.000Z,1890
2023-05-05T10:21:36.000Z,1822
2023-05-05T10:22:52.000Z,1794
2023-05-05T10:24:08.000Z,1968
2023-05-05T10:25:25.000Z,5265
2023-05-05T10:26:40.000Z,2244
2023-05-05T10:27:57.000Z,1991
2023-05-05T10:29:14.000Z,2075
2023-05-05T10:30:30.000Z,1513
2023-05-05T10:31:47.000Z,1198
2023-05-05T10:33:03.000Z,1001
2023-05-05T10:34:20.000Z,945
2023-05-05T10:36:53.000Z,1147
2023-05-05T10:39:26.000Z,1136
2023-05-05T10:40:42.000Z,1209
2023-05-05T10:43:15.000Z,1580
2023-05-05T10:45:47.000Z,2216
2023-05-05T10:47:04.000Z,5000
2023-05-05T10:48:20.000Z,5625
2023-05-05T10:49:37.000Z,4471
2023-05-05T10:50:53.000Z,3960
2023-05-05T10:54:43.000Z,3200
2023-05-05T10:57:16.000Z,3802
2023-05-05T10:58:33.000Z,3774
2023-05-05T10:59:49.000Z,4213
2023-05-05T11:02:21.000Z,6345
2023-05-05T11:03:38.000Z,5158
2023-05-05T11:07:28.000Z,4820
2023-05-05T11:08:44.000Z,4573
2023-05-05T11:10:01.000Z,4618
2023-05-05T11:11:17.000Z,5107
2023-05-05T11:12:34.000Z,5079
2023-05-05T11:13:50.000Z,4893
2023-05-05T11:15:07.000Z,5591
2023-05-05T11:16:23.000Z,5490
2023-05-05T11:17:39.000Z,5400
2023-05-05T11:18:56.000Z,5563
2023-05-05T11:20:12.000Z,5484
2023-05-05T11:21:29.000Z,3268
2023-05-05T11:22:45.000Z,2520
2023-05-05T11:25:18.000Z,2733
2023-05-05T11:26:35.000Z,3234
2023-05-05T11:27:51.000Z,3521
2023-05-05T11:29:08.000Z,3583
2023-05-05T11:30:24.000Z,3442
2023-05-05T11:31:41.000Z,4190
2023-05-05T11:34:14.000Z,5085
2023-05-05T11:35:30.000Z,4798
2023-05-05T11:38:03.000Z,4207
2023-05-05T11:39:20.000Z,4989
2023-05-05T11:40:36.000Z,4438
2023-05-05T11:41:53.000Z,4730
2023-05-05T11:43:09.000Z,5326
2023-05-05T11:44:26.000Z,5225
2023-05-05T11:45:42.000Z,5146
2023-05-05T11:46:59.000Z,5259
2023-05-05T11:49:32.000Z,5625
2023-05-05T11:50:48.000Z,5850
2023-05-05T11:52:04.000Z,2424
2023-05-05T11:53:21.000Z,2373
2023-05-05T11:54:37.000Z,2233
2023-05-05T11:55:54.000Z,2058
2023-05-05T11:57:10.000Z,2002
2023-05-05T11:58:27.000Z,2131
2023-05-05T11:59:43.000Z,3954
2023-05-05T12:02:16.000Z,3346
2023-05-05T12:03:33.000Z,4286
2023-05-05T12:06:05.000Z,5051
2023-05-05T12:07:21.000Z,4100
2023-05-05T12:08:38.000Z,2390
2023-05-05T12:09:54.000Z,2272
2023-05-05T12:11:11.000Z,2435
2023-05-05T12:13:44.000Z,3105
2023-05-05T12:15:00.000Z,2368
2023-05-05T12:16:17.000Z,2261
2023-05-05T12:17:33.000Z,2317
2023-05-05T12:18:50.000Z,2193
2023-05-05T12:21:23.000Z,2013
2023-05-05T12:22:40.000Z,1923
2023-05-05T12:23:55.000Z,1828
2023-05-05T12:25:12.000Z,1755
2023-05-05T12:26:29.000Z,1681
2023-05-05T12:27:45.000Z,1631
2023-05-05T12:29:02.000Z,1636
2023-05-05T12:30:18.000Z,1687
2023-05-05T12:31:35.000Z,1760
2023-05-05T12:32:51.000Z,1839
2023-05-05T12:34:08.000Z,1867
2023-05-05T12:36:41.000Z,1867
2023-05-05T12:39:14.000Z,1856
2023-05-05T12:40:30.000Z,1856
2023-05-05T12:43:03.000Z,1901
2023-05-05T12:44:19.000Z,1923
2023-05-05T12:45:36.000Z,1946
2023-05-05T12:46:52.000Z,1968
2023-05-05T12:50:42.000Z,2160
2023-05-05T12:51:59.000Z,2255
2023-05-05T12:54:32.000Z,2385
2023-05-05T12:55:48.000Z,2401
2023-05-05T12:59:37.000Z,2446
2023-05-05T13:00:54.000Z,2435
2023-05-05T13:03:27.000Z,2317
2023-05-05T13:04:43.000Z,2317
2023-05-05T13:06:00.000Z,2351
2023-05-05T13:07:16.000Z,2311
2023-05-05T13:08:33.000Z,2266
2023-05-05T13:09:49.000Z,2278
2023-05-05T13:12:22.000Z,2491
2023-05-05T13:14:55.000Z,2694
2023-05-05T13:16:11.000Z,2677
2023-05-05T13:18:44.000Z,2458
2023-05-05T13:21:17.000Z,2182
2023-05-05T13:22:34.000Z,1991
2023-05-05T13:23:50.000Z,1811
2023-05-05T13:25:07.000Z,1636
2023-05-05T13:26:24.000Z,1490
2023-05-05T13:28:57.000Z,1226
2023-05-05T13:30:12.000Z,1158
2023-05-05T13:31:29.000Z,1085
2023-05-05T13:32:45.000Z,1040
2023-05-05T13:34:02.000Z,1006
2023-05-05T13:35:19.000Z,995
2023-05-05T13:36:35.000Z,978
2023-05-05T13:37:52.000Z,961
2023-05-05T13:39:08.000Z,950
2023-05-05T13:40:25.000Z,933
2023-05-05T13:42:58.000Z,905
2023-05-05T13:46:47.000Z,905
2023-05-05T13:49:20.000Z,928
2023-05-05T13:51:53.000Z,900
2023-05-05T13:53:09.000Z,877
2023-05-05T13:54:26.000Z,871
2023-05-05T13:55:42.000Z,871
2023-05-05T13:56:59.000Z,883
2023-05-05T14:00:49.000Z,888
2023-05-05T14:02:05.000Z,871
2023-05-05T14:03:22.000Z,855
2023-05-05T14:05:54.000Z,821
2023-05-05T14:08:27.000Z,826
2023-05-05T14:09:44.000Z,843
2023-05-05T14:11:00.000Z,871
2023-05-05T14:12:17.000Z,911
2023-05-05T14:14:50.000Z,1074
2023-05-05T14:16:06.000Z,1141
2023-05-05T14:17:23.000Z,1186
2023-05-05T14:21:12.000Z,1164
2023-05-05T14:23:45.000Z,1164
2023-05-05T14:27:34.000Z,1136
2023-05-05T14:30:07.000Z,1220
2023-05-05T14:31:24.000Z,1260
2023-05-05T14:32:41.000Z,1254
2023-05-05T14:35:14.000Z,1248
2023-05-05T14:37:47.000Z,1198
2023-05-05T14:39:02.000Z,1147
2023-05-05T14:40:19.000Z,1091
2023-05-05T14:42:52.000Z,1029
2023-05-05T14:44:09.000Z,1057
2023-05-05T14:45:25.000Z,1119
2023-05-05T14:46:42.000Z,1192
2023-05-05T14:49:15.000Z,1361
2023-05-05T14:50:31.000Z,1468
2023-05-05T14:51:48.000Z,1558
2023-05-05T14:53:04.000Z,1620
2023-05-05T14:54:21.000Z,1676
2023-05-05T14:55:37.000Z,1710
2023-05-05T14:56:53.000Z,1755
2023-05-05T14:58:10.000Z,1794
2023-05-05T14:59:26.000Z,1845
2023-05-05T15:00:43.000Z,1884
2023-05-05T15:01:59.000Z,1895
2023-05-05T15:03:16.000Z,1861
2023-05-05T15:04:32.000Z,1805
2023-05-05T15:07:06.000Z,1670
2023-05-05T15:08:22.000Z,1614
2023-05-05T15:09:39.000Z,1563
2023-05-05T15:10:55.000Z,1535
2023-05-05T15:13:27.000Z,1395
2023-05-05T15:17:17.000Z,1231
2023-05-05T15:18:34.000Z,1147
2023-05-05T15:19:50.000Z,1068
2023-05-05T15:21:07.000Z,1023
2023-05-05T15:22:23.000Z,995
2023-05-05T15:23:40.000Z,950
2023-05-05T15:24:56.000Z,916
2023-05-05T15:26:13.000Z,900
2023-05-05T15:27:29.000Z,900
2023-05-05T15:28:45.000Z,900
2023-05-05T15:30:02.000Z,871
2023-05-05T15:31:18.000Z,866
2023-05-05T15:32:35.000Z,905
2023-05-05T15:33:51.000Z,928
2023-05-05T15:35:08.000Z,900
2023-05-05T15:36:24.000Z,860
2023-05-05T15:40:14.000Z,950
2023-05-05T15:41:31.000Z,1001
2023-05-05T15:44:04.000Z,1085
2023-05-05T15:45:19.000Z,1113
2023-05-05T15:46:36.000Z,1119
2023-05-05T15:47:52.000Z,1102
2023-05-05T15:49:09.000Z,1085
2023-05-05T15:50:26.000Z,1102
2023-05-05T15:51:42.000Z,1136
2023-05-05T15:52:59.000Z,1203
2023-05-05T15:54:15.000Z,1271
2023-05-05T15:55:32.000Z,1350
2023-05-05T15:56:48.000Z,1462
2023-05-05T15:58:05.000Z,1749
2023-05-05T15:59:21.000Z,1760
2023-05-05T16:00:38.000Z,1558
2023-05-05T16:01:54.000Z,1513
2023-05-05T16:03:10.000Z,1406
2023-05-05T16:04:27.000Z,1378
2023-05-05T16:05:43.000Z,1350
2023-05-05T16:06:59.000Z,1276
2023-05-05T16:08:15.000Z,1231
2023-05-05T16:09:31.000Z,1203
2023-05-05T16:10:48.000Z,1226
2023-05-05T16:12:05.000Z,1260
2023-05-05T16:13:21.000Z,1265
2023-05-05T16:14:38.000Z,1237
2023-05-05T16:15:54.000Z,1209
2023-05-05T16:17:11.000Z,1141
2023-05-05T16:18:27.000Z,1057
2023-05-05T16:19:44.000Z,990
2023-05-05T16:22:17.000Z,933
2023-05-05T16:23:33.000Z,950
2023-05-05T16:24:49.000Z,950
2023-05-05T16:26:06.000Z,945
2023-05-05T16:27:22.000Z,933
2023-05-05T16:28:39.000Z,945
2023-05-05T16:29:55.000Z,939
2023-05-05T16:31:12.000Z,916
2023-05-05T16:32:28.000Z,945
2023-05-05T16:33:45.000Z,990
2023-05-05T16:35:01.000Z,1035
2023-05-05T16:36:17.000Z,1878
2023-05-05T16:38:50.000Z,990
2023-05-05T16:40:06.000Z,945
2023-05-05T16:41:23.000Z,860
2023-05-05T16:42:39.000Z,781
2023-05-05T16:45:12.000Z,680
2023-05-05T16:46:29.000Z,680
2023-05-05T16:47:45.000Z,703
2023-05-05T16:49:02.000Z,905
2023-05-05T16:50:19.000Z,984
2023-05-05T16:51:34.000Z,2250
2023-05-05T16:52:50.000Z,2233
2023-05-05T16:54:07.000Z,990
2023-05-05T16:55:23.000Z,1383
2023-05-05T16:56:40.000Z,1091
2023-05-05T16:57:56.000Z,1130
2023-05-05T16:59:13.000Z,1006
2023-05-05T17:00:29.000Z,922
2023-05-05T17:01:46.000Z,900
2023-05-05T17:03:03.000Z,877
2023-05-05T17:04:19.000Z,843
2023-05-05T17:05:35.000Z,843
2023-05-05T17:06:51.000Z,849
2023-05-05T17:09:24.000Z,888
2023-05-05T17:10:40.000Z,900
2023-05-05T17:11:57.000Z,905
2023-05-05T17:13:13.000Z,1186
2023-05-05T17:14:30.000Z,1648
2023-05-05T17:15:46.000Z,1051
2023-05-05T17:17:03.000Z,1378
2023-05-05T17:18:20.000Z,1861
2023-05-05T17:19:36.000Z,1800
2023-05-05T17:20:53.000Z,1693
2023-05-05T17:22:09.000Z,1535
2023-05-05T17:23:26.000Z,1400
2023-05-05T17:24:41.000Z,1541
2023-05-05T17:25:58.000Z,1006
2023-05-05T17:27:15.000Z,1248
2023-05-05T17:28:31.000Z,922
2023-05-05T17:29:48.000Z,821
2023-05-05T17:31:04.000Z,663
2023-05-05T17:32:21.000Z,624
2023-05-05T17:33:37.000Z,601
2023-05-05T17:34:54.000Z,697
2023-05-05T17:36:10.000Z,1344
2023-05-05T17:37:27.000Z,804
2023-05-05T17:38:43.000Z,1271
2023-05-05T17:40:00.000Z,1248
2023-05-05T17:41:16.000Z,1170
2023-05-05T17:42:32.000Z,675
2023-05-05T17:45:05.000Z,1091
2023-05-05T17:46:22.000Z,1051
2023-05-05T17:47:38.000Z,1006
2023-05-05T17:48:55.000Z,877
2023-05-05T17:50:11.000Z,916
2023-05-05T17:52:45.000Z,427
2023-05-05T17:54:01.000Z,410
2023-05-05T17:55:18.000Z,393
2023-05-05T17:56:34.000Z,382
2023-05-05T17:57:50.000Z,376
2023-05-05T17:59:06.000Z,483
2023-05-05T18:00:23.000Z,360
2023-05-05T18:02:56.000Z,337
2023-05-05T18:04:13.000Z,331
2023-05-05T18:05:29.000Z,320
2023-05-05T18:09:17.000Z,303
2023-05-05T18:13:07.000Z,281
2023-05-05T18:14:24.000Z,270
2023-05-05T18:15:40.000Z,264
2023-05-05T18:16:57.000Z,258
2023-05-05T18:18:13.000Z,270
2023-05-05T18:20:46.000Z,253
2023-05-05T18:22:03.000Z,241
2023-05-05T18:23:19.000Z,225
2023-05-05T18:24:35.000Z,208
2023-05-05T18:25:51.000Z,196
2023-05-05T18:27:07.000Z,191
2023-05-05T18:28:23.000Z,180
2023-05-05T18:29:40.000Z,168
2023-05-05T18:32:13.000Z,157
2023-05-05T18:33:29.000Z,151
2023-05-05T18:34:46.000Z,146
2023-05-05T18:37:19.000Z,129
2023-05-05T18:39:52.000Z,106
2023-05-05T18:41:09.000Z,101
2023-05-05T18:42:25.000Z,95
2023-05-05T18:43:41.000Z,84
2023-05-05T18:44:58.000Z,78
2023-05-05T18:46:14.000Z,73
2023-05-05T18:47:31.000Z,67
2023-05-05T18:48:47.000Z,61
2023-05-05T18:52:37.000Z,45
2023-05-05T18:53:53.000Z,45
2023-05-05T18:55:10.000Z,39
2023-05-05T18:56:26.000Z,33
2023-05-05T18:57:43.000Z,28
2023-05-05T18:58:59.000Z,22
2023-05-05T19:00:15.000Z,22
2023-05-05T19:01:32.000Z,16
2023-05-05T19:02:48.000Z,16
2023-05-05T19:04:05.000Z,11
2023-05-05T19:06:38.000Z,5
2023-05-05T19:07:55.000Z,5
2023-05-05T19:09:11.000Z,5
2023-05-05T19:10:28.000Z,5
2023-05-05T19:11:44.000Z,0
2023-05-05T19:13:01.000Z,0
2023-05-05T19:14:17.000Z,0
2023-05-05T19:15:34.000Z,0
2023-05-05T19:16:50.000Z,0
2023-05-05T19:18:06.000Z,0
2023-05-05T19:20:38.000Z,0
2023-05-05T19:21:54.000Z,0
2023-05-05T19:23:11.000Z,0
2023-05-05T19:24:27.000Z,0
2023-05-05T19:25:44.000Z,0
2023-05-05T19:27:00.000Z,0
2023-05-05T19:28:17.000Z,0
2023-05-05T19:30:50.000Z,0
2023-05-05T19:32:07.000Z,0
2023-05-05T19:33:23.000Z,0
2023-05-05T19:34:40.000Z,0
2023-05-05T19:35:56.000Z,0
2023-05-05T19:37:13.000Z,0
2023-05-05T19:38:29.000Z,0
2023-05-05T19:39:45.000Z,0
2023-05-05T19:41:02.000Z,0
2023-05-05T19:42:18.000Z,0
2023-05-05T19:43:35.000Z,0
2023-05-05T19:44:51.000Z,0
2023-05-05T19:46:08.000Z,0
2023-05-05T19:48:40.000Z,0
2023-05-05T19:49:56.000Z,0
2023-05-05T19:51:13.000Z,0
2023-05-05T19:52:29.000Z,0
2023-05-05T19:53:46.000Z,0
2023-05-05T19:57:35.000Z,0
2023-05-05T20:01:25.000Z,0
2023-05-05T20:03:58.000Z,0
2023-05-05T20:05:14.000Z,0
2023-05-05T20:06:30.000Z,0
2023-05-05T20:09:03.000Z,0
2023-05-05T20:10:20.000Z,0
2023-05-05T20:11:36.000Z,0
2023-05-05T20:12:53.000Z,0
2023-05-05T20:14:09.000Z,0
2023-05-05T20:15:26.000Z,0
2023-05-05T20:16:43.000Z,0
2023-05-05T20:19:16.000Z,0
2023-05-05T20:20:32.000Z,0
2023-05-05T20:21:49.000Z,0
2023-05-05T20:23:04.000Z,0
2023-05-05T20:24:21.000Z,0
2023-05-05T20:25:38.000Z,0
2023-05-05T20:29:27.000Z,0
2023-05-05T20:30:44.000Z,0
2023-05-05T20:32:00.000Z,0
2023-05-05T20:33:17.000Z,0
2023-05-05T20:34:33.000Z,0
2023-05-05T20:35:50.000Z,0
2023-05-05T20:37:06.000Z,0
2023-05-05T20:38:23.000Z,0
2023-05-05T20:39:39.000Z,0
2023-05-05T20:40:55.000Z,0
2023-05-05T20:42:12.000Z,0
2023-05-05T20:43:28.000Z,0
2023-05-05T20:44:45.000Z,0
2023-05-05T20:46:01.000Z,0
2023-05-05T20:47:18.000Z,0